createdAt,value
2023-04-27T00:01:53.964Z,40.60
2023-04-27T00:04:24.156Z,40.63
2023-04-27T00:06:54.623Z,40.46
2023-04-27T00:09:27.322Z,40.44
2023-04-27T00:11:57.738Z,40.65
2023-04-27T00:14:29.265Z,40.72
2023-04-27T00:16:59.727Z,40.90
2023-04-27T00:19:30.940Z,40.61
2023-04-27T00:22:01.541Z,40.56
2023-04-27T00:24:33.775Z,40.72
2023-04-27T00:27:03.954Z,40.71
2023-04-27T00:29:34.168Z,40.50
2023-04-27T00:32:04.373Z,40.83
2023-04-27T00:34:34.426Z,40.59
2023-04-27T00:37:04.214Z,40.67
2023-04-27T00:39:38.092Z,40.84
2023-04-27T00:42:11.919Z,40.67
2023-04-27T00:44:42.055Z,40.99
2023-04-27T00:47:13.875Z,40.77
2023-04-27T00:49:43.639Z,40.70
2023-04-27T00:52:13.942Z,40.63
2023-04-27T00:54:45.985Z,40.63
2023-04-27T00:57:17.008Z,40.78
2023-04-27T00:59:47.139Z,40.71
2023-04-27T01:02:17.476Z,40.67
2023-04-27T01:04:47.845Z,40.71
2023-04-27T01:07:18.369Z,40.59
2023-04-27T01:09:51.005Z,40.67
2023-04-27T01:12:21.210Z,40.64
2023-04-27T01:14:51.480Z,40.80
2023-04-27T01:17:22.371Z,40.66
2023-04-27T01:19:52.050Z,40.71
2023-04-27T01:22:22.278Z,40.49
2023-04-27T01:24:54.537Z,40.78
2023-04-27T01:27:24.458Z,40.59
2023-04-27T01:29:54.532Z,41.28
2023-04-27T01:32:24.989Z,40.61
2023-04-27T01:34:55.590Z,40.78
2023-04-27T01:37:25.828Z,40.53
2023-04-27T01:39:57.483Z,40.53
2023-04-27T01:42:27.323Z,40.34
2023-04-27T01:44:57.275Z,40.50
2023-04-27T01:47:27.366Z,40.50
2023-04-27T01:49:57.618Z,40.57
2023-04-27T01:52:27.841Z,40.53
2023-04-27T01:54:59.680Z,40.54
2023-04-27T01:57:29.866Z,40.51
2023-04-27T02:00:00.148Z,40.28
2023-04-27T02:02:30.455Z,40.52
2023-04-27T02:05:00.334Z,40.66
2023-04-27T02:07:29.898Z,40.41
2023-04-27T02:10:02.079Z,40.55
2023-04-27T02:12:32.272Z,40.53
2023-04-27T02:15:01.881Z,40.44
2023-04-27T02:17:34.472Z,40.62
2023-04-27T02:20:05.849Z,40.83
2023-04-27T02:22:36.179Z,40.75
2023-04-27T02:25:09.544Z,40.63
2023-04-27T02:27:40.405Z,40.51
2023-04-27T02:30:13.780Z,40.30
2023-04-27T02:32:44.616Z,40.20
2023-04-27T02:35:15.076Z,40.42
2023-04-27T02:37:45.102Z,40.64
2023-04-27T02:40:17.304Z,40.32
2023-04-27T02:42:47.258Z,40.71
2023-04-27T02:45:24.468Z,40.60
2023-04-27T02:47:54.749Z,40.56
2023-04-27T02:50:25.066Z,40.41
2023-04-27T02:52:55.649Z,40.59
2023-04-27T02:55:28.003Z,40.39
2023-04-27T02:57:58.199Z,40.33
2023-04-27T03:00:28.918Z,40.34
2023-04-27T03:02:59.082Z,40.22
2023-04-27T03:05:32.112Z,40.32
2023-04-27T03:08:03.763Z,40.47
2023-04-27T03:10:35.902Z,40.87
2023-04-27T03:13:06.623Z,40.89
2023-04-27T03:15:38.960Z,40.58
2023-04-27T03:18:09.520Z,40.68
2023-04-27T03:20:39.987Z,40.69
2023-04-27T03:23:10.165Z,40.76
2023-04-27T03:25:42.357Z,40.72
2023-04-27T03:28:12.050Z,40.78
2023-04-27T03:30:43.156Z,40.51
2023-04-27T03:33:13.305Z,40.55
2023-04-27T03:35:43.703Z,40.65
2023-04-27T03:38:13.930Z,40.37
2023-04-27T03:40:46.015Z,40.23
2023-04-27T03:43:15.728Z,40.40
2023-04-27T03:45:46.196Z,40.50
2023-04-27T03:48:17.467Z,40.28
2023-04-27T03:50:47.860Z,40.35
2023-04-27T03:53:18.307Z,40.40
2023-04-27T03:55:50.599Z,40.57
2023-04-27T03:58:20.844Z,40.59
2023-04-27T04:00:51.120Z,40.79
2023-04-27T04:03:21.279Z,40.62
2023-04-27T04:05:51.799Z,40.76
2023-04-27T04:08:21.425Z,40.57
2023-04-27T04:10:53.532Z,40.50
2023-04-27T04:13:23.646Z,40.50
2023-04-27T04:16:03.342Z,40.81
2023-04-27T04:18:33.603Z,40.77
2023-04-27T04:21:04.112Z,40.53
2023-04-27T04:23:34.305Z,40.56
2023-04-27T04:26:06.190Z,40.55
2023-04-27T04:28:36.506Z,40.52
2023-04-27T04:31:08.846Z,40.79
2023-04-27T04:33:39.087Z,40.45
2023-04-27T04:36:09.938Z,40.41
2023-04-27T04:38:40.188Z,40.67
2023-04-27T04:41:12.691Z,40.57
2023-04-27T04:43:42.927Z,40.71
2023-04-27T04:46:13.092Z,40.38
2023-04-27T04:48:42.690Z,40.56
2023-04-27T04:51:12.255Z,40.67
2023-04-27T04:53:50.595Z,40.71
2023-04-27T04:56:22.387Z,40.54
2023-04-27T04:58:52.333Z,40.41
2023-04-27T05:01:22.679Z,40.49
2023-04-27T05:03:53.072Z,40.43
2023-04-27T05:06:23.012Z,40.37
2023-04-27T05:08:52.997Z,40.27
2023-04-27T05:11:25.393Z,40.20
2023-04-27T05:13:55.543Z,40.30
2023-04-27T05:16:26.904Z,40.23
2023-04-27T05:18:57.320Z,40.48
2023-04-27T05:21:27.044Z,40.01
2023-04-27T05:23:56.733Z,40.07
2023-04-27T05:26:28.539Z,40.10
2023-04-27T05:28:58.795Z,40.26
2023-04-27T05:31:29.266Z,40.08
2023-04-27T05:33:59.491Z,40.05
2023-04-27T05:36:30.097Z,40.08
2023-04-27T05:39:00.250Z,40.08
2023-04-27T05:41:32.734Z,39.87
2023-04-27T05:44:02.865Z,39.98
2023-04-27T05:46:32.862Z,39.72
2023-04-27T05:49:02.929Z,39.48
2023-04-27T05:51:34.137Z,39.46
2023-04-27T05:54:04.313Z,39.39
2023-04-27T05:56:38.235Z,39.34
2023-04-27T05:59:08.538Z,39.17
2023-04-27T06:01:39.368Z,39.18
2023-04-27T06:04:09.605Z,38.97
2023-04-27T06:06:39.907Z,38.94
2023-04-27T06:09:09.608Z,38.75
2023-04-27T06:11:41.292Z,38.40
2023-04-27T06:14:11.560Z,38.38
2023-04-27T06:16:42.562Z,38.40
2023-04-27T06:19:12.947Z,38.19
2023-04-27T06:21:42.827Z,37.93
2023-04-27T06:24:12.949Z,37.86
2023-04-27T06:26:44.872Z,37.74
2023-04-27T06:29:14.725Z,37.77
2023-04-27T06:31:45.438Z,37.73
2023-04-27T06:34:15.447Z,37.60
2023-04-27T06:36:45.191Z,37.57
2023-04-27T06:39:15.045Z,37.21
2023-04-27T06:41:46.838Z,37.01
2023-04-27T06:44:16.497Z,36.86
2023-04-27T06:46:46.519Z,37.00
2023-04-27T06:49:16.658Z,36.64
2023-04-27T06:51:47.069Z,36.51
2023-04-27T06:54:17.441Z,36.37
2023-04-27T06:56:49.632Z,36.33
2023-04-27T06:59:19.681Z,36.40
2023-04-27T07:01:49.528Z,35.94
2023-04-27T07:04:19.924Z,35.93
2023-04-27T07:06:50.162Z,36.19
2023-04-27T07:09:27.072Z,35.90
2023-04-27T07:12:01.636Z,35.87
2023-04-27T07:14:33.965Z,35.69
2023-04-27T07:17:04.199Z,35.92
2023-04-27T07:19:34.794Z,36.05
2023-04-27T07:22:05.129Z,36.14
2023-04-27T07:24:35.399Z,36.21
2023-04-27T07:27:07.661Z,36.22
2023-04-27T07:29:38.318Z,35.95
2023-04-27T07:32:09.280Z,36.19
2023-04-27T07:34:51.796Z,36.25
2023-04-27T07:37:22.413Z,35.92
2023-04-27T07:39:54.301Z,36.01
2023-04-27T07:42:26.454Z,35.56
2023-04-27T07:44:56.500Z,35.52
2023-04-27T07:47:26.736Z,35.73
2023-04-27T07:49:56.855Z,35.32
2023-04-27T07:52:26.981Z,35.80
2023-04-27T07:54:57.551Z,35.55
2023-04-27T07:57:29.944Z,35.38
2023-04-27T08:00:00.423Z,35.31
2023-04-27T08:02:32.162Z,35.53
2023-04-27T08:05:03.248Z,35.23
2023-04-27T08:07:36.085Z,35.11
2023-04-27T08:10:11.023Z,35.14
2023-04-27T08:12:42.992Z,35.05
2023-04-27T08:15:14.611Z,35.13
2023-04-27T08:17:45.343Z,34.58
2023-04-27T08:20:15.989Z,35.11
2023-04-27T08:22:46.445Z,35.08
2023-04-27T08:25:16.617Z,34.90
2023-04-27T08:27:48.340Z,34.76
2023-04-27T08:30:19.002Z,34.29
2023-04-27T08:32:49.075Z,34.57
2023-04-27T08:35:19.638Z,34.29
2023-04-27T08:37:50.132Z,34.23
2023-04-27T08:40:20.893Z,34.45
2023-04-27T08:43:01.609Z,34.21
2023-04-27T08:45:31.896Z,34.39
2023-04-27T08:48:01.705Z,34.17
2023-04-27T08:50:32.056Z,33.97
2023-04-27T08:53:02.370Z,34.06
2023-04-27T08:55:32.890Z,34.20
2023-04-27T08:58:04.596Z,33.94
2023-04-27T09:00:42.937Z,34.14
2023-04-27T09:03:25.722Z,34.27
2023-04-27T09:06:05.355Z,33.87
2023-04-27T09:08:47.070Z,33.91
2023-04-27T09:11:18.883Z,33.88
2023-04-27T09:13:51.080Z,33.94
2023-04-27T09:16:28.193Z,33.61
2023-04-27T09:18:59.865Z,33.95
2023-04-27T09:21:33.009Z,33.75
2023-04-27T09:24:13.188Z,33.56
2023-04-27T09:26:44.179Z,33.25
2023-04-27T09:29:16.849Z,33.14
2023-04-27T09:31:47.139Z,33.14
2023-04-27T09:34:17.407Z,33.14
2023-04-27T09:36:50.149Z,33.43
2023-04-27T09:39:20.625Z,33.13
2023-04-27T09:41:51.900Z,33.51
2023-04-27T09:44:23.884Z,33.30
2023-04-27T09:46:55.774Z,33.35
2023-04-27T09:49:28.805Z,33.17
2023-04-27T09:51:59.342Z,32.75
2023-04-27T09:54:36.329Z,32.84
2023-04-27T09:57:23.681Z,32.80
2023-04-27T10:00:33.027Z,33.08
2023-04-27T10:03:26.003Z,32.60
2023-04-27T10:06:52.524Z,32.82
2023-04-27T10:09:25.797Z,32.96
2023-04-27T10:11:57.103Z,32.36
2023-04-27T10:14:30.720Z,32.38
2023-04-27T10:17:03.760Z,32.38
2023-04-27T10:19:33.384Z,32.70
2023-04-27T10:22:05.813Z,32.38
2023-04-27T10:24:38.744Z,32.20
2023-04-27T10:27:12.499Z,32.13
2023-04-27T10:29:45.520Z,31.72
2023-04-27T10:32:24.510Z,32.11
2023-04-27T10:35:06.781Z,32.08
2023-04-27T10:37:48.072Z,31.61
2023-04-27T10:40:19.633Z,32.01
2023-04-27T10:42:51.131Z,32.06
2023-04-27T10:45:31.963Z,31.50
2023-04-27T10:48:04.983Z,31.67
2023-04-27T10:50:35.163Z,31.60
2023-04-27T10:53:08.704Z,31.74
2023-04-27T10:55:39.649Z,31.93
2023-04-27T10:58:09.512Z,31.51
2023-04-27T11:00:45.036Z,31.26
2023-04-27T11:03:20.208Z,31.59
2023-04-27T11:05:52.729Z,31.59
2023-04-27T11:08:22.747Z,31.12
2023-04-27T11:10:54.494Z,31.56
2023-04-27T11:13:29.104Z,31.30
2023-04-27T11:16:01.519Z,31.02
2023-04-27T11:18:35.377Z,31.15
2023-04-27T11:21:13.474Z,31.36
2023-04-27T11:23:44.301Z,31.09
2023-04-27T11:26:16.920Z,30.98
2023-04-27T11:28:59.285Z,31.28
2023-04-27T11:31:30.698Z,31.20
2023-04-27T11:34:04.037Z,30.64
2023-04-27T11:36:34.391Z,31.13
2023-04-27T11:39:06.724Z,30.76
2023-04-27T11:41:39.668Z,30.97
2023-04-27T11:44:12.603Z,30.83
2023-04-27T11:46:48.092Z,30.92
2023-04-27T11:49:20.391Z,30.77
2023-04-27T11:51:51.454Z,31.05
2023-04-27T11:54:22.110Z,31.14
2023-04-27T11:56:52.159Z,30.52
2023-04-27T11:59:23.984Z,30.57
2023-04-27T12:01:54.788Z,30.66
2023-04-27T12:04:26.145Z,30.53
2023-04-27T12:06:57.188Z,30.60
2023-04-27T12:09:27.303Z,30.42
2023-04-27T12:11:57.552Z,30.54
2023-04-27T12:14:27.783Z,30.42
2023-04-27T12:16:58.126Z,31.04
2023-04-27T12:19:31.409Z,31.11
2023-04-27T12:22:01.954Z,30.49
2023-04-27T12:24:32.692Z,30.45
2023-04-27T12:27:03.743Z,30.88
2023-04-27T12:29:34.361Z,30.64
2023-04-27T12:32:04.571Z,30.33
2023-04-27T12:34:37.074Z,30.54
2023-04-27T12:37:07.611Z,30.67
2023-04-27T12:39:37.294Z,30.86
2023-04-27T12:42:07.739Z,30.47
2023-04-27T12:44:38.409Z,30.73
2023-04-27T12:47:08.111Z,30.19
2023-04-27T12:49:40.963Z,30.70
2023-04-27T12:52:10.958Z,30.24
2023-04-27T12:54:41.226Z,30.00
2023-04-27T12:57:11.503Z,30.18
2023-04-27T12:59:42.257Z,30.39
2023-04-27T13:02:13.315Z,30.51
2023-04-27T13:04:45.185Z,30.69
2023-04-27T13:07:15.637Z,30.08
2023-04-27T13:09:45.931Z,30.24
2023-04-27T13:12:16.410Z,29.79
2023-04-27T13:14:47.549Z,29.97
2023-04-27T13:17:18.049Z,30.33
2023-04-27T13:19:50.293Z,30.02
2023-04-27T13:22:21.397Z,30.26
2023-04-27T13:24:51.666Z,29.85
2023-04-27T13:27:25.509Z,29.59
2023-04-27T13:29:55.521Z,30.15
2023-04-27T13:32:25.656Z,29.77
2023-04-27T13:34:57.748Z,30.31
2023-04-27T13:37:27.573Z,30.27
2023-04-27T13:39:57.845Z,30.31
2023-04-27T13:42:29.902Z,29.82
2023-04-27T13:45:00.147Z,29.55
2023-04-27T13:47:37.481Z,30.14
2023-04-27T13:50:12.468Z,29.96
2023-04-27T13:52:42.983Z,29.71
2023-04-27T13:55:14.148Z,29.79
2023-04-27T13:57:44.424Z,29.83
2023-04-27T14:00:16.928Z,29.84
2023-04-27T14:02:47.012Z,29.68
2023-04-27T14:05:19.326Z,29.93
2023-04-27T14:07:49.570Z,29.68
2023-04-27T14:10:19.326Z,29.62
2023-04-27T14:12:49.597Z,29.70
2023-04-27T14:15:21.052Z,29.67
2023-04-27T14:17:51.192Z,29.88
2023-04-27T14:20:23.069Z,29.92
2023-04-27T14:22:53.460Z,29.69
2023-04-27T14:25:24.104Z,29.50
2023-04-27T14:27:55.092Z,29.92
2023-04-27T14:30:25.262Z,30.03
2023-04-27T14:32:55.896Z,29.62
2023-04-27T14:35:28.991Z,29.60
2023-04-27T14:38:02.627Z,29.96
2023-04-27T14:40:34.477Z,29.92
2023-04-27T14:43:04.770Z,29.74
2023-04-27T14:45:47.783Z,30.11
2023-04-27T14:48:21.384Z,29.88
2023-04-27T14:50:53.162Z,29.90
2023-04-27T14:53:23.131Z,29.81
2023-04-27T14:55:53.355Z,29.71
2023-04-27T14:58:23.421Z,30.06
2023-04-27T15:00:54.368Z,30.11
2023-04-27T15:03:24.911Z,30.15
2023-04-27T15:05:56.786Z,29.91
2023-04-27T15:08:27.018Z,29.89
2023-04-27T15:11:00.202Z,30.09
2023-04-27T15:13:30.911Z,29.72
2023-04-27T15:16:05.200Z,30.06
2023-04-27T15:18:35.717Z,30.39
2023-04-27T15:21:07.747Z,30.17
2023-04-27T15:23:38.009Z,30.35
2023-04-27T15:26:08.087Z,30.15
2023-04-27T15:28:38.523Z,30.14
2023-04-27T15:31:08.753Z,30.47
2023-04-27T15:33:38.568Z,30.57
2023-04-27T15:36:11.428Z,30.11
2023-04-27T15:38:41.624Z,30.48
2023-04-27T15:41:11.492Z,30.50
2023-04-27T15:43:41.867Z,30.20
2023-04-27T15:46:11.965Z,30.53
2023-04-27T15:48:42.252Z,30.69
2023-04-27T15:51:14.397Z,30.48
2023-04-27T15:53:45.715Z,30.38
2023-04-27T15:56:16.883Z,30.52
2023-04-27T15:58:48.564Z,30.73
2023-04-27T16:01:19.900Z,30.80
2023-04-27T16:03:50.301Z,30.40
2023-04-27T16:06:22.411Z,30.79
2023-04-27T16:08:52.133Z,30.87
2023-04-27T16:11:22.355Z,30.89
2023-04-27T16:13:52.434Z,30.90
2023-04-27T16:16:23.810Z,30.81
2023-04-27T16:18:54.303Z,30.58
2023-04-27T16:21:27.289Z,30.55
2023-04-27T16:23:57.511Z,30.51
2023-04-27T16:26:28.390Z,30.60
2023-04-27T16:28:58.850Z,31.04
2023-04-27T16:31:29.585Z,30.80
2023-04-27T16:34:00.014Z,30.73
2023-04-27T16:36:34.045Z,30.51
2023-04-27T16:39:05.821Z,30.40
2023-04-27T16:41:35.946Z,30.46
2023-04-27T16:44:06.202Z,30.54
2023-04-27T16:46:37.087Z,30.37
2023-04-27T16:49:07.306Z,30.70
2023-04-27T16:51:39.328Z,30.45
2023-04-27T16:54:11.417Z,30.54
2023-04-27T16:56:41.955Z,30.50
2023-04-27T16:59:12.911Z,30.55
2023-04-27T17:01:43.900Z,30.86
2023-04-27T17:04:14.579Z,30.61
2023-04-27T17:06:48.755Z,30.29
2023-04-27T17:09:19.208Z,30.41
2023-04-27T17:11:49.407Z,29.99
2023-04-27T17:14:21.562Z,30.30
2023-04-27T17:16:52.738Z,30.31
2023-04-27T17:19:22.965Z,30.11
2023-04-27T17:21:55.033Z,30.31
2023-04-27T17:24:26.944Z,30.06
2023-04-27T17:26:57.764Z,30.10
2023-04-27T17:29:28.241Z,30.05
2023-04-27T17:31:58.567Z,30.48
2023-04-27T17:34:29.524Z,30.20
2023-04-27T17:37:01.465Z,30.32
2023-04-27T17:39:34.870Z,30.30
2023-04-27T17:42:07.250Z,30.34
2023-04-27T17:44:39.732Z,29.79
2023-04-27T17:47:12.706Z,30.29
2023-04-27T17:49:43.475Z,30.27
2023-04-27T17:52:15.827Z,30.39
2023-04-27T17:54:47.384Z,30.12
2023-04-27T17:57:18.640Z,30.13
2023-04-27T17:59:50.656Z,30.13
2023-04-27T18:02:20.585Z,30.15
2023-04-27T18:04:50.950Z,30.30
2023-04-27T18:07:23.147Z,30.27
2023-04-27T18:09:53.462Z,29.86
2023-04-27T18:12:23.995Z,30.04
2023-04-27T18:14:54.034Z,30.21
2023-04-27T18:17:24.086Z,30.11
2023-04-27T18:20:07.618Z,30.08
2023-04-27T18:22:42.146Z,30.18
2023-04-27T18:25:13.824Z,30.13
2023-04-27T18:27:45.809Z,30.42
2023-04-27T18:30:17.488Z,29.86
2023-04-27T18:32:52.163Z,29.98
2023-04-27T18:35:22.720Z,29.93
2023-04-27T18:37:55.764Z,29.87
2023-04-27T18:40:26.460Z,30.05
2023-04-27T18:42:56.822Z,30.15
2023-04-27T18:45:27.310Z,30.12
2023-04-27T18:47:57.691Z,29.77
2023-04-27T18:50:28.160Z,29.60
2023-04-27T18:53:01.949Z,30.01
2023-04-27T18:55:32.302Z,30.00
2023-04-27T18:58:06.349Z,30.25
2023-04-27T19:00:36.740Z,29.87
2023-04-27T19:03:07.489Z,29.80
2023-04-27T19:05:38.227Z,30.06
2023-04-27T19:08:10.845Z,29.81
2023-04-27T19:10:41.789Z,30.16
2023-04-27T19:13:12.747Z,30.14
2023-04-27T19:15:42.697Z,29.91
2023-04-27T19:18:13.366Z,30.02
2023-04-27T19:20:51.256Z,29.98
2023-04-27T19:23:23.587Z,29.99
2023-04-27T19:25:57.512Z,29.91
2023-04-27T19:28:30.754Z,29.89
2023-04-27T19:31:01.440Z,29.96
2023-04-27T19:33:32.184Z,30.27
2023-04-27T19:36:02.179Z,29.98
2023-04-27T19:38:35.483Z,29.77
2023-04-27T19:41:07.412Z,29.91
2023-04-27T19:43:37.798Z,30.09
2023-04-27T19:46:08.420Z,30.14
2023-04-27T19:48:38.848Z,29.92
2023-04-27T19:51:12.415Z,29.71
2023-04-27T19:53:44.894Z,29.94
2023-04-27T19:56:15.366Z,29.96
2023-04-27T19:58:45.523Z,29.97
2023-04-27T20:01:15.813Z,29.97
2023-04-27T20:03:46.421Z,30.05
2023-04-27T20:06:17.402Z,30.09
2023-04-27T20:08:49.813Z,29.92
2023-04-27T20:11:20.039Z,29.93
2023-04-27T20:13:50.854Z,29.92
2023-04-27T20:16:22.414Z,29.87
2023-04-27T20:18:52.794Z,30.06
2023-04-27T20:21:23.213Z,29.91
2023-04-27T20:23:55.603Z,29.68
2023-04-27T20:26:26.548Z,30.23
2023-04-27T20:28:57.068Z,30.01
2023-04-27T20:31:27.251Z,30.00
2023-04-27T20:33:57.976Z,29.88
2023-04-27T20:36:28.825Z,30.14
2023-04-27T20:39:02.399Z,30.24
2023-04-27T20:41:34.055Z,30.29
2023-04-27T20:44:04.456Z,30.22
2023-04-27T20:46:35.040Z,30.13
2023-04-27T20:49:05.594Z,30.08
2023-04-27T20:51:36.995Z,30.16
2023-04-27T20:54:08.847Z,30.29
2023-04-27T20:56:39.109Z,30.40
2023-04-27T20:59:09.402Z,30.26
2023-04-27T21:01:39.770Z,30.42
2023-04-27T21:04:10.435Z,30.39
2023-04-27T21:06:42.027Z,30.37
2023-04-27T21:09:14.204Z,30.47
2023-04-27T21:11:44.942Z,30.59
2023-04-27T21:14:14.863Z,30.92
2023-04-27T21:16:45.427Z,30.89
2023-04-27T21:19:17.017Z,30.88
2023-04-27T21:21:47.367Z,31.33
2023-04-27T21:24:20.145Z,31.05
2023-04-27T21:26:50.673Z,31.19
2023-04-27T21:29:20.982Z,31.30
2023-04-27T21:31:51.561Z,31.53
2023-04-27T21:34:22.027Z,31.60
2023-04-27T21:36:52.824Z,31.70
2023-04-27T21:39:25.076Z,31.85
2023-04-27T21:41:55.304Z,31.68
2023-04-27T21:44:25.281Z,32.02
2023-04-27T21:46:55.311Z,32.45
2023-04-27T21:49:26.967Z,32.12
2023-04-27T21:51:56.643Z,32.15
2023-04-27T21:54:28.557Z,32.36
2023-04-27T21:56:58.445Z,32.42
2023-04-27T21:59:28.792Z,32.29
2023-04-27T22:01:59.698Z,32.77
2023-04-27T22:04:30.431Z,32.54
2023-04-27T22:07:00.945Z,32.41
2023-04-27T22:09:32.906Z,32.28
2023-04-27T22:12:03.403Z,32.43
2023-04-27T22:14:34.013Z,32.70
2023-04-27T22:17:04.318Z,32.63
2023-04-27T22:19:34.571Z,32.50
2023-04-27T22:22:04.643Z,32.72
2023-04-27T22:24:37.005Z,32.86
2023-04-27T22:27:06.902Z,32.69
2023-04-27T22:29:37.063Z,33.00
2023-04-27T22:32:10.147Z,32.86
2023-04-27T22:34:40.090Z,32.85
2023-04-27T22:37:10.618Z,32.95
2023-04-27T22:39:42.582Z,32.86
2023-04-27T22:42:13.037Z,32.85
2023-04-27T22:44:43.428Z,32.89
2023-04-27T22:47:14.676Z,32.92
2023-04-27T22:49:45.596Z,33.06
2023-04-27T22:52:16.895Z,33.13
2023-04-27T22:54:48.988Z,33.12
2023-04-27T22:57:19.409Z,33.15
2023-04-27T22:59:51.955Z,33.23
2023-04-27T23:02:21.942Z,32.88
2023-04-27T23:04:52.264Z,32.88
2023-04-27T23:07:23.623Z,32.78
2023-04-27T23:09:55.625Z,32.77
2023-04-27T23:12:27.286Z,32.69
2023-04-27T23:14:57.006Z,32.83
2023-04-27T23:17:31.168Z,32.55
2023-04-27T23:20:02.617Z,32.48
2023-04-27T23:22:33.417Z,32.32
2023-04-27T23:25:05.182Z,32.19
2023-04-27T23:27:35.054Z,32.28
2023-04-27T23:30:05.490Z,32.33
2023-04-27T23:32:37.316Z,32.55
2023-04-27T23:35:08.650Z,32.22
2023-04-27T23:37:38.926Z,32.22
2023-04-27T23:40:14.670Z,32.36
2023-04-27T23:42:44.892Z,32.36
2023-04-27T23:45:15.577Z,32.02
2023-04-27T23:47:46.396Z,32.35
2023-04-27T23:50:16.964Z,32.08
2023-04-27T23:52:47.462Z,32.26
2023-04-27T23:55:19.977Z,32.15
2023-04-27T23:57:54.904Z,32.30
